Time;durP1;ratioP1;P1;durP2;ratioP2;P2;SDS_P1;SDS_P2;PMS_P1;PMS_P2;Temp;Humidity;BMP_temperature;BMP_pressure;BME280_temperature;BME280_humidity;BME280_pressure;Samples;Min_cycle;Max_cycle;Signal;HPM_P1;HPM_P2
2022/10/15 00:02:02;;;;;;;;;;;11.80;99.90;;;;;;5008412;28;19948;-70
2022/10/15 00:04:29;;;;;;;;;;;11.80;99.90;;;;;;5017335;28;19935;-69
2022/10/15 00:06:57;;;;;;;;;;;11.80;99.90;;;;;;5016766;28;19933;-69
2022/10/15 00:09:23;;;;;;;;;;;11.80;99.90;;;;;;5010322;28;19944;-75
2022/10/15 00:11:50;;;;;;;;;;;11.80;99.90;;;;;;5014191;28;20287;-70
2022/10/15 00:14:17;;;;;;;;;;;11.80;99.90;;;;;;5015072;28;20020;-70
2022/10/15 00:16:44;;;;;;;;;;;11.80;99.90;;;;;;5021345;28;19936;-73
2022/10/15 00:19:11;;;;;;;;;;;11.80;99.90;;;;;;5017298;28;19944;-70
2022/10/15 00:21:38;;;;;;;;;;;11.80;99.90;;;;;;5015517;28;20096;-72
2022/10/15 00:24:05;;;;;;;;;;;11.90;99.90;;;;;;5013034;28;19964;-72
2022/10/15 00:26:32;;;;;;;;;;;11.90;99.90;;;;;;5012374;28;19980;-70
2022/10/15 00:29:00;;;;;;;;;;;11.90;99.90;;;;;;5030343;28;19972;-73
2022/10/15 00:31:29;;;;;;;;;;;11.90;99.90;;;;;;5021543;28;20451;-71
2022/10/15 00:33:56;;;;;;;;;;;11.90;99.90;;;;;;5013123;28;19929;-70
2022/10/15 00:36:25;;;;;;;;;;;11.90;99.90;;;;;;5017833;28;20693;-71
2022/10/15 00:38:51;;;;;;;;;;;11.90;99.90;;;;;;5012298;28;20015;-72
2022/10/15 00:41:20;;;;;;;;;;;11.90;99.90;;;;;;5011673;28;19925;-70
2022/10/15 00:43:47;;;;;;;;;;;12.00;99.90;;;;;;5019031;28;19925;-70
2022/10/15 00:46:22;;;;;;;;;;;11.90;99.90;;;;;;5014818;28;19933;-72
2022/10/15 00:48:53;;;;;;;;;;;11.90;99.90;;;;;;5016616;28;20347;-70
2022/10/15 00:51:21;;;;;;;;;;;12.00;99.90;;;;;;5011728;28;19971;-69
2022/10/15 00:53:48;;;;;;;;;;;11.90;99.90;;;;;;5018503;28;20497;-73
2022/10/15 00:56:18;;;;;;;;;;;11.90;99.90;;;;;;5015504;28;20024;-70
2022/10/15 00:58:45;;;;;;;;;;;11.90;99.90;;;;;;5014729;28;19933;-73
2022/10/15 01:01:12;;;;;;;;;;;11.90;99.90;;;;;;5008952;28;19957;-70
2022/10/15 01:03:40;;;;;;;;;;;11.90;99.90;;;;;;5013247;28;20007;-71
2022/10/15 01:06:06;;;;;;;;;;;11.90;99.90;;;;;;5011476;28;19961;-72
2022/10/15 01:08:33;;;;;;;;;;;11.90;99.90;;;;;;5015108;28;20142;-69
2022/10/15 01:11:19;;;;;;;;;;;11.90;99.90;;;;;;5013688;28;19930;-73
2022/10/15 01:14:04;;;;;;;;;;;11.90;99.90;;;;;;5018498;28;19936;-71
2022/10/15 01:16:52;;;;;;;;;;;11.90;99.90;;;;;;5016886;28;19928;-69
2022/10/15 01:19:30;;;;;;;;;;;11.90;99.90;;;;;;5008628;28;19937;-72
2022/10/15 01:22:02;;;;;;;;;;;11.90;99.90;;;;;;5016964;28;19933;-72
2022/10/15 01:24:38;;;;;;;;;;;11.90;99.90;;;;;;5026185;28;19929;-70
2022/10/15 01:27:16;;;;;;;;;;;11.90;99.90;;;;;;5028825;28;19937;-69
2022/10/15 01:30:01;;;;;;;;;;;11.80;99.90;;;;;;5009486;28;20353;-69
2022/10/15 01:32:33;;;;;;;;;;;11.80;99.90;;;;;;5014962;28;19929;-70
2022/10/15 01:35:06;;;;;;;;;;;11.80;99.90;;;;;;5004779;28;19930;-70
2022/10/15 01:37:42;;;;;;;;;;;11.80;99.90;;;;;;5014018;28;19936;-69
2022/10/15 01:40:16;;;;;;;;;;;11.80;99.90;;;;;;5020009;28;19933;-69
2022/10/15 01:42:43;;;;;;;;;;;11.70;99.90;;;;;;5027890;28;19960;-71
2022/10/15 01:45:15;;;;;;;;;;;11.70;99.90;;;;;;5011324;28;20042;-69
2022/10/15 01:48:11;;;;;;;;;;;11.70;99.90;;;;;;5015577;28;19926;-74
2022/10/15 01:50:42;;;;;;;;;;;11.70;99.90;;;;;;5013001;28;19925;-69
2022/10/15 01:53:10;;;;;;;;;;;11.60;99.90;;;;;;5012013;28;20398;-70
2022/10/15 01:55:40;;;;;;;;;;;11.60;99.90;;;;;;5009120;28;19937;-70
2022/10/15 01:58:08;;;;;;;;;;;11.60;99.90;;;;;;5023106;28;20359;-71
2022/10/15 02:00:36;;;;;;;;;;;11.60;99.90;;;;;;5017342;28;19925;-69
2022/10/15 02:03:03;;;;;;;;;;;11.60;99.90;;;;;;5013695;28;19926;-71
2022/10/15 02:05:37;;;;;;;;;;;11.60;99.90;;;;;;5020846;28;19929;-70
2022/10/15 02:08:16;;;;;;;;;;;11.60;99.90;;;;;;5024120;28;19944;-70
2022/10/15 02:10:43;;;;;;;;;;;11.60;99.90;;;;;;5018396;28;19933;-69
2022/10/15 02:13:33;;;;;;;;;;;11.60;99.90;;;;;;5013777;28;20241;-70
2022/10/15 02:16:18;;;;;;;;;;;11.60;99.90;;;;;;5014260;28;20399;-70
2022/10/15 02:18:58;;;;;;;;;;;11.60;99.90;;;;;;5016232;28;19926;-70
2022/10/15 02:21:34;;;;;;;;;;;11.60;99.90;;;;;;5016141;28;19925;-70
2022/10/15 02:24:09;;;;;;;;;;;11.60;99.90;;;;;;5014916;28;20348;-73
2022/10/15 02:26:37;;;;;;;;;;;11.50;99.90;;;;;;5019138;28;19955;-71
2022/10/15 02:29:06;;;;;;;;;;;11.50;99.90;;;;;;5009436;28;19975;-70
2022/10/15 02:31:34;;;;;;;;;;;11.50;99.90;;;;;;5015547;28;19933;-70
2022/10/15 02:34:03;;;;;;;;;;;11.50;99.90;;;;;;5020283;28;19931;-71
2022/10/15 02:36:30;;;;;;;;;;;11.50;99.90;;;;;;5036980;28;19934;-69
2022/10/15 02:38:58;;;;;;;;;;;11.50;99.90;;;;;;5013962;28;20535;-70
2022/10/15 02:41:27;;;;;;;;;;;11.50;99.90;;;;;;5017061;28;19948;-70
2022/10/15 02:43:55;;;;;;;;;;;11.50;99.90;;;;;;5012511;28;20330;-72
2022/10/15 02:46:21;;;;;;;;;;;11.50;99.90;;;;;;5017081;28;19967;-70
2022/10/15 02:48:48;;;;;;;;;;;11.50;99.90;;;;;;5014997;28;19968;-70
2022/10/15 02:51:16;;;;;;;;;;;11.50;99.90;;;;;;5008671;28;20555;-73
2022/10/15 02:53:43;;;;;;;;;;;11.50;99.90;;;;;;5013994;28;19933;-70
2022/10/15 02:56:10;;;;;;;;;;;11.40;99.90;;;;;;5014537;28;20224;-70
2022/10/15 02:58:37;;;;;;;;;;;11.40;99.90;;;;;;5027100;28;20083;-72
2022/10/15 03:01:04;;;;;;;;;;;11.40;99.90;;;;;;5010857;28;19929;-70
2022/10/15 03:03:32;;;;;;;;;;;11.40;99.90;;;;;;5017877;28;19929;-70
2022/10/15 03:05:59;;;;;;;;;;;11.40;99.90;;;;;;5016070;28;20012;-70
2022/10/15 03:08:26;;;;;;;;;;;11.40;99.90;;;;;;5011414;28;19975;-70
2022/10/15 03:10:53;;;;;;;;;;;11.30;99.90;;;;;;5014674;28;19968;-70
2022/10/15 03:13:21;;;;;;;;;;;11.30;99.90;;;;;;5008291;28;19932;-71
2022/10/15 03:15:50;;;;;;;;;;;11.30;99.90;;;;;;5015185;28;20012;-72
2022/10/15 03:18:19;;;;;;;;;;;11.30;99.90;;;;;;5013814;28;20020;-71
2022/10/15 03:20:53;;;;;;;;;;;11.20;99.90;;;;;;5018551;28;19929;-73
2022/10/15 03:23:20;;;;;;;;;;;11.20;99.90;;;;;;5010426;28;19925;-70
2022/10/15 03:25:48;;;;;;;;;;;11.20;99.90;;;;;;5018905;28;20094;-70
2022/10/15 03:28:20;;;;;;;;;;;11.10;99.90;;;;;;5012312;28;19987;-70
2022/10/15 03:30:47;;;;;;;;;;;11.10;99.90;;;;;;5020486;28;19972;-71
2022/10/15 03:33:15;;;;;;;;;;;11.10;99.90;;;;;;5004859;28;20284;-70
2022/10/15 03:35:42;;;;;;;;;;;11.10;99.90;;;;;;5013776;28;19940;-70
2022/10/15 03:38:09;;;;;;;;;;;11.10;99.90;;;;;;5010141;28;19933;-70
2022/10/15 03:40:37;;;;;;;;;;;11.10;99.90;;;;;;5016181;28;20318;-70
2022/10/15 03:43:25;;;;;;;;;;;11.10;99.90;;;;;;5030331;28;19929;-69
2022/10/15 03:45:51;;;;;;;;;;;11.10;99.90;;;;;;5020956;28;20012;-70
2022/10/15 03:48:22;;;;;;;;;;;11.10;99.90;;;;;;5011066;28;19934;-70
2022/10/15 03:50:48;;;;;;;;;;;11.10;99.90;;;;;;5019337;28;19996;-70
2022/10/15 03:53:15;;;;;;;;;;;11.00;99.90;;;;;;5026195;28;20687;-70
2022/10/15 03:55:42;;;;;;;;;;;11.00;99.90;;;;;;5014659;28;20611;-70
2022/10/15 03:58:09;;;;;;;;;;;11.00;99.90;;;;;;5014176;28;19925;-70
2022/10/15 04:00:44;;;;;;;;;;;11.00;99.90;;;;;;5015896;28;20346;-70
2022/10/15 04:03:11;;;;;;;;;;;11.00;99.90;;;;;;5012079;28;20017;-69
2022/10/15 04:05:38;;;;;;;;;;;11.00;99.90;;;;;;5013341;28;19952;-70
2022/10/15 04:08:07;;;;;;;;;;;10.90;99.90;;;;;;5011968;28;20004;-70
2022/10/15 04:10:38;;;;;;;;;;;10.90;99.90;;;;;;5013207;28;19929;-69
2022/10/15 04:13:05;;;;;;;;;;;10.90;99.90;;;;;;5026097;28;19945;-70
2022/10/15 04:15:33;;;;;;;;;;;10.90;99.90;;;;;;5008804;28;19933;-70
2022/10/15 04:18:06;;;;;;;;;;;10.90;99.90;;;;;;5013693;28;19933;-71
2022/10/15 04:20:33;;;;;;;;;;;10.90;99.90;;;;;;5011459;28;19992;-70
2022/10/15 04:23:10;;;;;;;;;;;11.00;99.90;;;;;;5024341;28;19930;-70
2022/10/15 04:25:39;;;;;;;;;;;11.00;99.90;;;;;;5013382;28;20082;-70
2022/10/15 04:28:07;;;;;;;;;;;11.00;99.90;;;;;;5010977;28;19956;-70
2022/10/15 04:30:36;;;;;;;;;;;10.90;99.90;;;;;;5010810;28;19925;-70
2022/10/15 04:33:06;;;;;;;;;;;10.90;99.90;;;;;;5011293;28;19931;-69
2022/10/15 04:35:33;;;;;;;;;;;10.90;99.90;;;;;;5015993;28;19987;-70
2022/10/15 04:38:07;;;;;;;;;;;10.90;99.90;;;;;;5019607;28;19964;-72
2022/10/15 04:40:59;;;;;;;;;;;10.90;99.90;;;;;;5010627;28;20798;-69
2022/10/15 04:43:33;;;;;;;;;;;10.90;99.90;;;;;;5009237;28;19925;-70
2022/10/15 04:46:05;;;;;;;;;;;10.90;99.90;;;;;;5016992;28;20326;-70
2022/10/15 04:48:33;;;;;;;;;;;10.90;99.90;;;;;;5008673;28;19929;-70
2022/10/15 04:51:08;;;;;;;;;;;10.90;99.90;;;;;;5028190;28;19929;-71
2022/10/15 04:53:49;;;;;;;;;;;10.90;99.90;;;;;;5025117;28;19936;-71
2022/10/15 04:56:17;;;;;;;;;;;10.90;99.90;;;;;;5013276;28;19929;-74
2022/10/15 04:58:45;;;;;;;;;;;10.80;99.90;;;;;;5008704;28;20336;-71
2022/10/15 05:01:14;;;;;;;;;;;10.80;99.90;;;;;;5017302;28;20444;-71
2022/10/15 05:04:13;;;;;;;;;;;10.80;99.90;;;;;;5012730;28;19929;-69
2022/10/15 05:06:40;;;;;;;;;;;10.80;99.90;;;;;;5016227;28;19932;-70
2022/10/15 05:09:15;;;;;;;;;;;10.70;99.90;;;;;;5012100;28;19933;-70
2022/10/15 05:11:47;;;;;;;;;;;10.70;99.90;;;;;;5015983;28;19963;-70
2022/10/15 05:14:14;;;;;;;;;;;10.80;99.90;;;;;;5025913;28;19928;-72
2022/10/15 05:16:42;;;;;;;;;;;10.80;99.90;;;;;;5012933;28;20293;-69
2022/10/15 05:19:09;;;;;;;;;;;10.80;99.90;;;;;;5016808;28;20024;-72
2022/10/15 05:21:38;;;;;;;;;;;10.80;99.90;;;;;;5006913;28;19965;-73
2022/10/15 05:24:12;;;;;;;;;;;10.80;99.90;;;;;;5010616;28;19937;-70
2022/10/15 05:26:48;;;;;;;;;;;10.80;99.90;;;;;;5016021;28;20334;-70
2022/10/15 05:29:15;;;;;;;;;;;10.80;99.90;;;;;;5011493;28;20024;-70
2022/10/15 05:31:42;;;;;;;;;;;10.80;99.90;;;;;;5014643;28;19925;-70
2022/10/15 05:34:16;;;;;;;;;;;10.80;99.90;;;;;;5015663;28;20032;-73
2022/10/15 05:36:49;;;;;;;;;;;10.90;99.90;;;;;;5012887;28;19925;-70
2022/10/15 05:39:16;;;;;;;;;;;10.90;99.90;;;;;;5014723;28;19933;-72
2022/10/15 05:41:44;;;;;;;;;;;10.90;99.90;;;;;;5018993;28;20379;-73
2022/10/15 05:44:12;;;;;;;;;;;10.80;99.90;;;;;;5010259;28;19929;-70
2022/10/15 05:46:39;;;;;;;;;;;10.80;99.90;;;;;;5017926;28;19963;-70
2022/10/15 05:49:06;;;;;;;;;;;10.90;99.90;;;;;;5028977;28;20032;-69
2022/10/15 05:51:45;;;;;;;;;;;10.90;99.90;;;;;;5017190;28;20363;-71
2022/10/15 05:54:20;;;;;;;;;;;10.80;99.90;;;;;;5016567;28;19933;-70
2022/10/15 05:56:46;;;;;;;;;;;10.90;99.90;;;;;;5017683;28;19926;-70
2022/10/15 05:59:13;;;;;;;;;;;11.00;99.90;;;;;;5018002;28;19929;-70
2022/10/15 06:01:40;;;;;;;;;;;11.00;99.90;;;;;;5016694;28;19971;-70
2022/10/15 06:04:07;;;;;;;;;;;10.90;99.90;;;;;;5011237;28;20023;-71
2022/10/15 06:06:34;;;;;;;;;;;10.90;99.90;;;;;;5011442;28;19941;-70
2022/10/15 06:09:01;;;;;;;;;;;11.00;99.90;;;;;;5017636;28;19929;-73
2022/10/15 06:11:28;;;;;;;;;;;11.00;99.90;;;;;;5013016;28;19925;-70
2022/10/15 06:13:55;;;;;;;;;;;11.00;99.90;;;;;;5020647;28;19933;-71
2022/10/15 06:16:22;;;;;;;;;;;11.00;99.90;;;;;;5012395;28;20445;-71
2022/10/15 06:18:50;;;;;;;;;;;11.10;99.90;;;;;;5014246;28;19935;-69
2022/10/15 06:21:17;;;;;;;;;;;11.10;99.90;;;;;;5013447;28;19929;-70
2022/10/15 06:23:44;;;;;;;;;;;11.10;99.90;;;;;;5010395;28;19936;-70
2022/10/15 06:26:11;;;;;;;;;;;11.20;99.90;;;;;;5012422;28;19929;-70
2022/10/15 06:28:40;;;;;;;;;;;11.20;99.90;;;;;;5013351;28;19925;-71
2022/10/15 06:31:07;;;;;;;;;;;11.30;99.90;;;;;;5013043;28;20330;-69
2022/10/15 06:33:34;;;;;;;;;;;11.30;99.90;;;;;;5016012;28;19982;-71
2022/10/15 06:36:06;;;;;;;;;;;11.30;99.90;;;;;;5017699;28;19929;-73
2022/10/15 06:38:33;;;;;;;;;;;11.40;99.90;;;;;;5021541;28;20003;-72
2022/10/15 06:41:02;;;;;;;;;;;11.40;99.90;;;;;;5019282;28;20359;-71
2022/10/15 06:43:29;;;;;;;;;;;11.50;99.90;;;;;;5019154;28;19948;-72
2022/10/15 06:46:01;;;;;;;;;;;11.40;99.90;;;;;;5018908;28;19956;-69
2022/10/15 06:48:27;;;;;;;;;;;11.50;99.90;;;;;;5013184;28;19941;-73
2022/10/15 06:50:56;;;;;;;;;;;11.50;99.90;;;;;;5021641;28;19952;-70
2022/10/15 06:53:23;;;;;;;;;;;11.50;99.90;;;;;;5015139;28;19932;-70
2022/10/15 06:55:50;;;;;;;;;;;11.60;99.90;;;;;;5016776;28;20005;-70
2022/10/15 06:58:16;;;;;;;;;;;11.60;99.90;;;;;;5023362;28;19928;-69
2022/10/15 07:00:43;;;;;;;;;;;11.60;99.90;;;;;;5020202;28;19932;-67
2022/10/15 07:03:10;;;;;;;;;;;11.70;99.90;;;;;;5020235;28;20132;-69
2022/10/15 07:05:37;;;;;;;;;;;11.70;99.90;;;;;;5018603;28;20016;-69
2022/10/15 07:08:04;;;;;;;;;;;11.70;99.90;;;;;;5017269;28;20063;-71
2022/10/15 07:10:31;;;;;;;;;;;11.80;99.90;;;;;;5020642;28;20382;-70
2022/10/15 07:12:58;;;;;;;;;;;11.90;99.90;;;;;;5018481;28;19936;-69
2022/10/15 07:15:25;;;;;;;;;;;12.00;99.90;;;;;;5021776;28;19935;-74
2022/10/15 07:17:55;;;;;;;;;;;12.10;99.90;;;;;;5022041;28;19925;-69
2022/10/15 07:20:22;;;;;;;;;;;12.10;99.90;;;;;;5019526;28;20283;-74
2022/10/15 07:22:50;;;;;;;;;;;12.20;99.90;;;;;;5015637;28;20295;-69
2022/10/15 07:25:18;;;;;;;;;;;12.20;99.90;;;;;;5015513;28;19936;-68
2022/10/15 07:27:45;;;;;;;;;;;12.30;99.90;;;;;;5018431;28;20162;-74
2022/10/15 07:30:11;;;;;;;;;;;12.30;99.90;;;;;;5014615;28;19925;-68
2022/10/15 07:32:38;;;;;;;;;;;12.30;99.90;;;;;;5019321;28;19926;-70
2022/10/15 07:35:05;;;;;;;;;;;12.40;99.90;;;;;;5017031;28;19944;-73
2022/10/15 07:37:32;;;;;;;;;;;12.40;99.90;;;;;;5016658;28;19947;-69
2022/10/15 07:39:59;;;;;;;;;;;12.40;99.90;;;;;;5013276;28;19979;-71
2022/10/15 07:42:26;;;;;;;;;;;12.50;99.90;;;;;;5010262;28;19941;-69
2022/10/15 07:44:53;;;;;;;;;;;12.50;99.90;;;;;;5017477;28;19936;-70
2022/10/15 07:47:19;;;;;;;;;;;12.60;99.90;;;;;;5010520;28;19926;-70
2022/10/15 07:49:46;;;;;;;;;;;12.60;99.90;;;;;;5016483;28;19958;-68
2022/10/15 07:52:13;;;;;;;;;;;12.70;99.90;;;;;;5020022;28;19931;-68
2022/10/15 07:54:40;;;;;;;;;;;12.80;99.90;;;;;;5015206;28;20261;-68
2022/10/15 07:57:07;;;;;;;;;;;12.80;99.90;;;;;;5012216;28;19935;-67
2022/10/15 07:59:34;;;;;;;;;;;12.90;99.90;;;;;;5015462;28;19929;-69
2022/10/15 08:02:01;;;;;;;;;;;13.00;99.90;;;;;;5013718;28;19925;-68
2022/10/15 08:04:28;;;;;;;;;;;13.10;99.90;;;;;;5018101;28;19932;-67
2022/10/15 08:06:55;;;;;;;;;;;13.10;99.90;;;;;;5012072;28;20336;-69
2022/10/15 08:09:22;;;;;;;;;;;13.10;99.90;;;;;;5016179;28;19940;-70
2022/10/15 08:11:48;;;;;;;;;;;13.20;99.90;;;;;;5015722;28;19926;-68
2022/10/15 08:14:16;;;;;;;;;;;13.10;99.90;;;;;;5014036;28;19930;-72
2022/10/15 08:16:43;;;;;;;;;;;13.10;99.90;;;;;;5012673;28;20016;-72
2022/10/15 08:19:10;;;;;;;;;;;13.10;99.90;;;;;;5018992;28;19947;-68
2022/10/15 08:21:37;;;;;;;;;;;13.10;99.90;;;;;;5010333;28;20646;-71
2022/10/15 08:24:04;;;;;;;;;;;13.10;99.90;;;;;;5015577;28;20339;-67
2022/10/15 08:26:34;;;;;;;;;;;13.20;99.90;;;;;;5016213;28;19925;-67
2022/10/15 08:29:00;;;;;;;;;;;13.30;99.90;;;;;;5007821;28;20380;-68
2022/10/15 08:31:27;;;;;;;;;;;13.40;99.90;;;;;;5010773;28;20040;-70
2022/10/15 08:33:54;;;;;;;;;;;13.40;99.90;;;;;;5012092;28;19926;-68
2022/10/15 08:36:21;;;;;;;;;;;13.60;99.90;;;;;;5011910;28;19933;-68
2022/10/15 08:38:49;;;;;;;;;;;13.60;99.90;;;;;;5021192;28;19929;-71
2022/10/15 08:41:24;;;;;;;;;;;13.70;99.90;;;;;;5011823;28;19940;-68
2022/10/15 08:43:51;;;;;;;;;;;13.80;99.90;;;;;;5019779;28;20294;-67
2022/10/15 08:46:24;;;;;;;;;;;13.90;99.90;;;;;;5018612;28;19925;-68
2022/10/15 08:48:54;;;;;;;;;;;14.00;99.90;;;;;;5019003;28;19952;-67
2022/10/15 08:51:22;;;;;;;;;;;14.00;99.90;;;;;;5012818;28;20373;-67
2022/10/15 08:53:55;;;;;;;;;;;14.10;99.90;;;;;;5018311;28;20311;-70
2022/10/15 08:56:28;;;;;;;;;;;14.10;99.90;;;;;;5022329;28;20004;-67
2022/10/15 08:58:57;;;;;;;;;;;14.10;99.90;;;;;;5015264;28;19939;-67
2022/10/15 09:01:33;;;;;;;;;;;14.20;99.90;;;;;;5010416;28;19954;-68
2022/10/15 09:04:03;;;;;;;;;;;14.30;99.90;;;;;;5016227;28;19952;-69
2022/10/15 09:06:33;;;;;;;;;;;14.40;99.90;;;;;;5012147;28;19930;-69
2022/10/15 09:09:06;;;;;;;;;;;14.40;99.90;;;;;;5010897;28;19937;-72
2022/10/15 09:11:51;;;;;;;;;;;14.40;99.90;;;;;;5017261;28;19964;-73
2022/10/15 09:14:20;;;;;;;;;;;14.50;99.90;;;;;;5014785;28;19941;-70
2022/10/15 09:16:48;;;;;;;;;;;14.50;99.90;;;;;;5016158;28;20027;-69
2022/10/15 09:19:16;;;;;;;;;;;14.50;99.90;;;;;;5016957;28;20016;-72
2022/10/15 09:21:44;;;;;;;;;;;14.50;99.90;;;;;;5012140;28;20012;-72
2022/10/15 09:24:14;;;;;;;;;;;14.60;99.90;;;;;;5012871;28;20331;-67
2022/10/15 09:26:50;;;;;;;;;;;14.60;99.90;;;;;;5017723;28;20043;-68
2022/10/15 09:29:26;;;;;;;;;;;14.70;99.90;;;;;;5010558;28;20401;-69
2022/10/15 09:32:02;;;;;;;;;;;14.70;99.90;;;;;;5011305;28;19985;-67
2022/10/15 09:34:36;;;;;;;;;;;14.70;99.90;;;;;;5017247;28;20726;-68
2022/10/15 09:37:11;;;;;;;;;;;14.80;99.90;;;;;;5015033;28;20512;-72
2022/10/15 09:39:45;;;;;;;;;;;14.90;99.90;;;;;;5019983;28;19953;-67
2022/10/15 09:42:14;;;;;;;;;;;15.00;99.90;;;;;;5011004;28;20383;-68
2022/10/15 09:44:42;;;;;;;;;;;15.00;99.90;;;;;;5015580;28;20342;-67
2022/10/15 09:47:15;;;;;;;;;;;15.10;99.90;;;;;;5011416;28;20020;-67
2022/10/15 09:49:42;;;;;;;;;;;15.20;99.90;;;;;;5018278;28;20363;-70
2022/10/15 09:52:14;;;;;;;;;;;15.20;99.90;;;;;;5013905;28;20406;-67
2022/10/15 09:54:50;;;;;;;;;;;15.30;99.90;;;;;;5017200;28;20008;-69
2022/10/15 09:57:19;;;;;;;;;;;15.30;99.90;;;;;;5026519;28;19977;-70
2022/10/15 09:59:57;;;;;;;;;;;15.30;99.90;;;;;;5009910;28;19928;-68
2022/10/15 10:02:24;;;;;;;;;;;15.30;99.90;;;;;;5016155;28;20367;-68
2022/10/15 10:04:52;;;;;;;;;;;15.30;99.90;;;;;;5016984;28;19932;-68
2022/10/15 10:07:28;;;;;;;;;;;15.20;99.90;;;;;;5011903;28;19925;-68
2022/10/15 10:09:56;;;;;;;;;;;15.20;99.90;;;;;;5018132;28;20413;-68
2022/10/15 10:12:34;;;;;;;;;;;15.10;99.90;;;;;;5019282;28;19930;-68
2022/10/15 10:15:07;;;;;;;;;;;15.10;99.90;;;;;;5020326;28;20008;-72
2022/10/15 10:17:34;;;;;;;;;;;15.10;99.90;;;;;;5015791;28;19945;-67
2022/10/15 10:20:03;;;;;;;;;;;15.10;99.90;;;;;;5019300;28;19948;-67
2022/10/15 10:22:40;;;;;;;;;;;15.10;99.90;;;;;;5014770;28;19965;-68
2022/10/15 10:25:22;;;;;;;;;;;15.10;99.90;;;;;;5016306;28;19951;-68
2022/10/15 10:27:49;;;;;;;;;;;15.20;99.90;;;;;;5018891;28;19931;-68
2022/10/15 10:30:16;;;;;;;;;;;15.20;99.90;;;;;;5017941;28;19929;-70
2022/10/15 10:32:43;;;;;;;;;;;15.20;99.90;;;;;;5018930;28;20018;-70
2022/10/15 10:35:19;;;;;;;;;;;15.10;99.90;;;;;;5015714;28;20033;-67
2022/10/15 10:37:46;;;;;;;;;;;15.20;99.90;;;;;;5014682;28;19933;-69
2022/10/15 10:40:25;;;;;;;;;;;15.10;99.90;;;;;;5018629;28;19932;-68
2022/10/15 10:43:13;;;;;;;;;;;15.20;99.90;;;;;;5012659;28;19933;-69
2022/10/15 10:45:54;;;;;;;;;;;15.20;99.90;;;;;;5017263;28;19932;-66
2022/10/15 10:48:25;;;;;;;;;;;15.30;99.90;;;;;;5023599;28;19933;-67
2022/10/15 10:51:01;;;;;;;;;;;15.30;99.90;;;;;;5015455;28;19949;-67
2022/10/15 10:53:27;;;;;;;;;;;15.40;99.90;;;;;;5014782;28;20015;-68
2022/10/15 10:55:55;;;;;;;;;;;15.30;99.90;;;;;;5014656;28;19933;-65
2022/10/15 10:58:32;;;;;;;;;;;15.30;99.90;;;;;;5019099;28;19925;-67
2022/10/15 11:00:59;;;;;;;;;;;15.30;99.90;;;;;;5010862;28;20016;-64
2022/10/15 11:03:32;;;;;;;;;;;15.30;99.90;;;;;;5016779;28;19955;-64
2022/10/15 11:06:05;;;;;;;;;;;15.30;99.90;;;;;;5020392;28;19936;-65
2022/10/15 11:08:36;;;;;;;;;;;15.40;99.90;;;;;;5021016;28;20345;-70
2022/10/15 11:11:15;;;;;;;;;;;15.40;99.90;;;;;;5016841;28;19931;-68
2022/10/15 11:13:41;;;;;;;;;;;15.40;99.90;;;;;;5014785;28;19925;-68
2022/10/15 11:16:19;;;;;;;;;;;15.40;99.90;;;;;;5013709;28;19925;-68
2022/10/15 11:18:52;;;;;;;;;;;15.50;99.90;;;;;;5020553;28;20280;-70
2022/10/15 11:21:37;;;;;;;;;;;15.50;99.90;;;;;;5010681;28;20020;-67
2022/10/15 11:24:08;;;;;;;;;;;15.40;99.90;;;;;;5017496;28;19926;-72
2022/10/15 11:26:56;;;;;;;;;;;15.50;99.90;;;;;;5013811;28;19929;-67
2022/10/15 11:29:58;;;;;;;;;;;15.50;99.90;;;;;;5015790;28;20031;-69
2022/10/15 11:32:43;;;;;;;;;;;15.40;99.90;;;;;;5018749;28;20028;-68
2022/10/15 11:35:35;;;;;;;;;;;15.50;99.90;;;;;;5019219;28;19925;-68
2022/10/15 11:38:25;;;;;;;;;;;15.50;99.90;;;;;;5008580;28;19940;-68
2022/10/15 11:40:55;;;;;;;;;;;15.50;99.90;;;;;;5015078;28;20028;-70
2022/10/15 11:43:36;;;;;;;;;;;15.50;99.90;;;;;;5019724;28;19968;-69
2022/10/15 11:46:12;;;;;;;;;;;15.50;99.90;;;;;;5020346;28;19929;-71
2022/10/15 11:48:48;;;;;;;;;;;15.60;99.90;;;;;;5021983;28;19926;-67
2022/10/15 11:51:14;;;;;;;;;;;15.50;99.90;;;;;;5013588;28;20020;-67
2022/10/15 11:53:41;;;;;;;;;;;15.50;99.90;;;;;;5020600;28;20020;-68
2022/10/15 11:56:26;;;;;;;;;;;15.60;99.90;;;;;;5021161;28;19929;-68
2022/10/15 11:59:14;;;;;;;;;;;15.70;99.90;;;;;;5019208;28;20048;-68
2022/10/15 12:01:56;;;;;;;;;;;15.70;99.90;;;;;;5015501;28;19925;-68
2022/10/15 12:04:35;;;;;;;;;;;15.70;99.90;;;;;;5016440;28;19956;-68
2022/10/15 12:07:03;;;;;;;;;;;15.70;99.90;;;;;;5016613;28;20364;-72
2022/10/15 12:09:34;;;;;;;;;;;15.70;99.90;;;;;;5010156;28;20394;-69
2022/10/15 12:12:13;;;;;;;;;;;15.70;99.90;;;;;;5013452;28;20371;-68
2022/10/15 12:14:45;;;;;;;;;;;15.60;99.90;;;;;;5013355;28;20056;-68
2022/10/15 12:17:30;;;;;;;;;;;15.60;99.90;;;;;;5008860;28;20388;-68
2022/10/15 12:20:05;;;;;;;;;;;15.60;99.90;;;;;;5021542;28;20015;-68
2022/10/15 12:22:52;;;;;;;;;;;15.60;99.90;;;;;;5017043;28;20019;-68
2022/10/15 12:25:34;;;;;;;;;;;15.60;99.90;;;;;;5012380;28;20024;-73
2022/10/15 12:28:21;;;;;;;;;;;15.60;99.90;;;;;;5017745;28;19936;-69
2022/10/15 12:30:55;;;;;;;;;;;15.60;99.90;;;;;;5011749;28;19929;-67
2022/10/15 12:33:30;;;;;;;;;;;15.50;99.90;;;;;;5014958;28;19929;-69
2022/10/15 12:35:59;;;;;;;;;;;15.50;99.90;;;;;;5012783;28;20036;-70
2022/10/15 12:38:30;;;;;;;;;;;15.60;99.90;;;;;;5015166;28;20649;-68
2022/10/15 12:40:59;;;;;;;;;;;15.70;99.90;;;;;;5018361;28;20048;-70
2022/10/15 12:43:27;;;;;;;;;;;15.90;99.90;;;;;;5014070;28;19925;-68
2022/10/15 12:45:55;;;;;;;;;;;15.90;99.90;;;;;;5014987;28;19929;-70
2022/10/15 12:48:29;;;;;;;;;;;15.90;99.90;;;;;;5011733;28;19935;-69
2022/10/15 12:51:14;;;;;;;;;;;15.80;99.90;;;;;;5015380;28;20035;-68
2022/10/15 12:53:42;;;;;;;;;;;15.80;99.90;;;;;;5010515;28;19991;-70
2022/10/15 12:56:12;;;;;;;;;;;15.80;99.90;;;;;;5013859;28;20024;-70
2022/10/15 12:58:43;;;;;;;;;;;15.80;99.90;;;;;;5016564;28;19980;-68
2022/10/15 13:01:13;;;;;;;;;;;15.80;99.90;;;;;;5011201;28;20016;-69
2022/10/15 13:03:49;;;;;;;;;;;15.70;99.90;;;;;;5015123;28;20456;-71
2022/10/15 13:06:19;;;;;;;;;;;15.70;99.90;;;;;;5013899;28;20407;-73
2022/10/15 13:09:01;;;;;;;;;;;15.60;99.90;;;;;;5017706;28;20020;-69
2022/10/15 13:11:31;;;;;;;;;;;15.60;99.90;;;;;;5016010;28;20332;-68
2022/10/15 13:14:19;;;;;;;;;;;15.60;99.90;;;;;;5016480;28;19934;-73
2022/10/15 13:16:46;;;;;;;;;;;15.60;99.90;;;;;;5017367;28;19925;-73
2022/10/15 13:19:18;;;;;;;;;;;15.50;99.90;;;;;;5012228;28;19925;-69
2022/10/15 13:21:49;;;;;;;;;;;15.50;99.90;;;;;;5025097;28;20016;-69
2022/10/15 13:24:17;;;;;;;;;;;15.60;99.90;;;;;;5011491;28;20032;-68
2022/10/15 13:26:44;;;;;;;;;;;15.60;99.90;;;;;;5015439;28;20558;-71
2022/10/15 13:29:15;;;;;;;;;;;15.70;99.90;;;;;;5008540;28;19948;-70
2022/10/15 13:31:43;;;;;;;;;;;15.70;99.90;;;;;;5015026;28;20251;-69
2022/10/15 13:34:30;;;;;;;;;;;15.70;99.90;;;;;;5017241;28;20374;-68
2022/10/15 13:37:00;;;;;;;;;;;15.70;99.90;;;;;;5015155;28;19929;-69
2022/10/15 13:39:29;;;;;;;;;;;15.80;99.90;;;;;;5018928;28;20078;-73
2022/10/15 13:42:06;;;;;;;;;;;15.80;99.90;;;;;;5034754;28;19925;-67
2022/10/15 13:44:32;;;;;;;;;;;15.70;99.90;;;;;;5020059;28;20601;-69
2022/10/15 13:46:59;;;;;;;;;;;15.70;99.90;;;;;;5014254;28;19936;-69
2022/10/15 13:49:26;;;;;;;;;;;15.70;99.90;;;;;;5017112;28;19937;-68
2022/10/15 13:51:54;;;;;;;;;;;15.60;99.90;;;;;;5020578;28;20291;-69
2022/10/15 13:54:23;;;;;;;;;;;15.50;99.90;;;;;;5022017;28;20434;-69
2022/10/15 13:56:54;;;;;;;;;;;15.50;99.90;;;;;;5020738;28;21222;-70
2022/10/15 13:59:22;;;;;;;;;;;15.40;99.90;;;;;;5020879;28;19932;-68
2022/10/15 14:01:54;;;;;;;;;;;15.30;99.90;;;;;;5017293;28;19925;-69
2022/10/15 14:04:22;;;;;;;;;;;15.30;99.90;;;;;;5011548;28;20081;-70
2022/10/15 14:07:01;;;;;;;;;;;15.30;99.90;;;;;;5013299;28;19926;-70
2022/10/15 14:09:29;;;;;;;;;;;15.20;99.90;;;;;;5013039;28;20004;-70
2022/10/15 14:11:56;;;;;;;;;;;15.10;99.90;;;;;;5016091;28;19925;-68
2022/10/15 14:14:40;;;;;;;;;;;15.10;99.90;;;;;;5015956;28;20018;-70
2022/10/15 14:17:16;;;;;;;;;;;15.10;99.90;;;;;;5017540;28;20393;-69
2022/10/15 14:19:47;;;;;;;;;;;15.10;99.90;;;;;;5016650;28;19972;-70
2022/10/15 14:22:28;;;;;;;;;;;15.00;99.90;;;;;;5014487;28;20027;-70
2022/10/15 14:24:55;;;;;;;;;;;15.00;99.90;;;;;;5016700;28;20032;-70
2022/10/15 14:27:23;;;;;;;;;;;14.90;99.90;;;;;;5015011;28;20361;-69
2022/10/15 14:29:51;;;;;;;;;;;14.90;99.90;;;;;;5014448;28;19925;-68
2022/10/15 14:32:19;;;;;;;;;;;14.90;99.90;;;;;;5026113;28;20024;-68
2022/10/15 14:34:46;;;;;;;;;;;14.80;99.90;;;;;;5018850;28;20453;-69
2022/10/15 14:37:36;;;;;;;;;;;14.70;99.90;;;;;;5019110;28;19929;-68
2022/10/15 14:40:12;;;;;;;;;;;14.70;99.90;;;;;;5013263;28;19947;-70